createdAt,value
2018-10-11T00:00:33.000Z,99805.34
2018-10-11T00:01:13.476Z,99811.48
2018-10-11T00:01:53.790Z,99805.91
2018-10-11T00:02:34.142Z,99811.42
2018-10-11T00:03:14.412Z,99812.71
2018-10-11T00:03:54.680Z,99806.38
2018-10-11T00:04:35.210Z,99813.53
2018-10-11T00:05:15.403Z,99811.03
2018-10-11T00:05:55.751Z,99811.78
2018-10-11T00:06:36.005Z,99809.73
2018-10-11T00:07:16.311Z,99814.48
2018-10-11T00:07:56.541Z,99810.02
2018-10-11T00:08:36.977Z,99810.03
2018-10-11T00:09:18.125Z,99808.81
2018-10-11T00:09:58.536Z,99812.80
2018-10-11T00:10:38.902Z,99812.63
2018-10-11T00:11:19.060Z,99810.02
2018-10-11T00:11:59.427Z,99815.12
2018-10-11T00:12:39.841Z,99812.53
2018-10-11T00:13:20.121Z,99812.63
2018-10-11T00:14:00.308Z,99811.96
2018-10-11T00:14:40.547Z,99806.59
2018-10-11T00:15:20.775Z,99811.70
2018-10-11T00:16:01.176Z,99812.63
2018-10-11T00:16:41.367Z,99805.45
2018-10-11T00:17:21.696Z,99815.05
2018-10-11T00:18:02.056Z,99807.12
2018-10-11T00:19:17.186Z,99809.74
2018-10-11T00:19:57.423Z,99813.01
2018-10-11T00:20:37.982Z,99812.90
2018-10-11T00:21:18.329Z,99814.50
2018-10-11T00:21:58.932Z,99818.70
2018-10-11T00:22:39.461Z,99811.23
2018-10-11T00:23:19.646Z,99814.33
2018-10-11T00:23:59.848Z,99815.05
2018-10-11T00:24:40.287Z,99806.95
2018-10-11T00:25:20.810Z,99818.13
2018-10-11T00:26:00.960Z,99813.84
2018-10-11T00:26:41.201Z,99819.55
2018-10-11T00:27:21.812Z,99820.73
2018-10-11T00:28:01.945Z,99824.63
2018-10-11T00:28:42.229Z,99822.23
2018-10-11T00:29:22.500Z,99815.89
2018-10-11T00:30:02.815Z,99825.68
2018-10-11T00:30:43.007Z,99819.34
2018-10-11T00:31:23.474Z,99809.83
2018-10-11T00:32:03.684Z,99818.23
2018-10-11T00:32:44.108Z,99802.41
2018-10-11T00:33:24.343Z,99813.75
2018-10-11T00:34:04.649Z,99811.52
2018-10-11T00:34:44.934Z,99799.99
2018-10-11T00:35:25.646Z,99802.13
2018-10-11T00:36:05.965Z,99808.34
2018-10-11T00:36:46.132Z,99809.83
2018-10-11T00:37:26.528Z,99804.27
2018-10-11T00:38:06.960Z,99801.20
2018-10-11T00:38:47.436Z,99806.30
2018-10-11T00:39:27.773Z,99800.25
2018-10-11T00:40:09.980Z,99799.62
2018-10-11T00:40:50.118Z,99793.95
2018-10-11T00:41:30.346Z,99795.80
2018-10-11T00:42:10.551Z,99794.77
2018-10-11T00:42:50.823Z,99792.42
2018-10-11T00:43:31.259Z,99794.58
2018-10-11T00:44:14.870Z,99795.70
2018-10-11T00:44:55.144Z,99797.47
2018-10-11T00:45:35.333Z,99790.28
2018-10-11T00:46:15.448Z,99792.54
2018-10-11T00:47:01.015Z,99792.06
2018-10-11T00:47:41.423Z,99790.42
2018-10-11T00:48:21.718Z,99787.70
2018-10-11T00:49:01.938Z,99790.98
2018-10-11T00:49:42.317Z,99790.89
2018-10-11T00:50:22.892Z,99787.53
2018-10-11T00:51:03.716Z,99790.22
2018-10-11T00:51:43.888Z,99785.09
2018-10-11T00:52:24.066Z,99794.42
2018-10-11T00:53:04.404Z,99785.19
2018-10-11T00:53:44.540Z,99782.70
2018-10-11T00:54:24.741Z,99779.70
2018-10-11T00:55:05.499Z,99778.57
2018-10-11T00:55:45.851Z,99776.16
2018-10-11T00:56:26.212Z,99774.95
2018-10-11T00:57:07.460Z,99777.75
2018-10-11T00:57:47.711Z,99775.50
2018-10-11T00:58:28.088Z,99775.42
2018-10-11T00:59:09.263Z,99772.36
2018-10-11T00:59:49.452Z,99783.61
2018-10-11T01:00:29.941Z,99781.01
2018-10-11T01:01:10.168Z,99779.80
2018-10-11T01:01:50.429Z,99778.22
2018-10-11T01:02:30.911Z,99773.59
2018-10-11T01:03:11.152Z,99778.05
2018-10-11T01:03:51.347Z,99785.47
2018-10-11T01:04:31.515Z,99778.50
2018-10-11T01:05:11.681Z,99778.89
2018-10-11T01:05:51.961Z,99776.75
2018-10-11T01:06:32.340Z,99786.13
2018-10-11T01:07:12.490Z,99781.21
2018-10-11T01:07:53.044Z,99777.77
2018-10-11T01:08:33.369Z,99776.28
2018-10-11T01:09:13.565Z,99775.90
2018-10-11T01:09:54.011Z,99776.20
2018-10-11T01:10:34.444Z,99775.07
2018-10-11T01:11:14.721Z,99779.61
2018-10-11T01:11:54.963Z,99777.38
2018-10-11T01:12:35.255Z,99770.88
2018-10-11T01:13:15.866Z,99779.05
2018-10-11T01:13:56.380Z,99776.35
2018-10-11T01:14:36.712Z,99784.47
2018-10-11T01:15:17.225Z,99780.28
2018-10-11T01:15:57.538Z,99786.13
2018-10-11T01:16:37.775Z,99787.43
2018-10-11T01:17:17.978Z,99786.80
2018-10-11T01:17:58.381Z,99785.03
2018-10-11T01:18:38.724Z,99788.85
2018-10-11T01:19:19.498Z,99781.50
2018-10-11T01:20:00.028Z,99780.20
2018-10-11T01:20:40.652Z,99781.68
2018-10-11T01:21:20.992Z,99776.30
2018-10-11T01:22:02.215Z,99775.72
2018-10-11T01:22:42.480Z,99781.77
2018-10-11T01:23:22.853Z,99779.16
2018-10-11T01:24:03.113Z,99775.26
2018-10-11T01:24:43.300Z,99769.41
2018-10-11T01:25:23.733Z,99780.19
2018-10-11T01:26:05.140Z,99771.08
2018-10-11T01:26:48.456Z,99770.51
2018-10-11T01:27:29.071Z,99762.91
2018-10-11T01:28:09.396Z,99772.66
2018-10-11T01:28:49.667Z,99768.11
2018-10-11T01:29:30.327Z,99764.59
2018-10-11T01:30:10.637Z,99758.91
2018-10-11T01:30:56.556Z,99761.22
2018-10-11T01:31:36.962Z,99760.47
2018-10-11T01:32:17.141Z,99755.84
2018-10-11T01:32:57.508Z,99755.38
2018-10-11T01:33:37.864Z,99751.33
2018-10-11T01:34:18.120Z,99750.88
2018-10-11T01:34:58.776Z,99745.77
2018-10-11T01:35:38.893Z,99753.02
2018-10-11T01:36:19.382Z,99752.28
2018-10-11T01:36:59.834Z,99749.67
2018-10-11T01:37:40.129Z,99751.81
2018-10-11T01:38:20.505Z,99750.53
2018-10-11T01:39:00.864Z,99758.43
2018-10-11T01:39:41.596Z,99754.07
2018-10-11T01:40:22.008Z,99755.38
2018-10-11T01:41:02.859Z,99754.41
2018-10-11T01:41:43.599Z,99740.48
2018-10-11T01:42:24.697Z,99750.64
2018-10-11T01:43:06.254Z,99749.05
2018-10-11T01:43:46.781Z,99749.51
2018-10-11T01:44:27.312Z,99741.03
2018-10-11T01:45:08.076Z,99743.16
2018-10-11T01:45:48.756Z,99739.55
2018-10-11T01:46:29.826Z,99736.59
2018-10-11T01:47:10.402Z,99733.98
2018-10-11T01:47:51.048Z,99723.02
2018-10-11T01:48:31.629Z,99730.07
2018-10-11T01:49:12.014Z,99732.67
2018-10-11T01:49:52.592Z,99732.40
2018-10-11T01:50:33.692Z,99729.42
2018-10-11T01:51:14.327Z,99716.59
2018-10-11T01:51:54.753Z,99728.03
2018-10-11T01:52:35.556Z,99725.42
2018-10-11T01:53:15.724Z,99726.23
2018-10-11T01:53:56.731Z,99732.56
2018-10-11T01:54:37.109Z,99723.55
2018-10-11T01:55:17.817Z,99731.00
2018-10-11T01:55:58.175Z,99725.70
2018-10-11T01:56:38.702Z,99719.28
2018-10-11T01:57:19.173Z,99725.91
2018-10-11T01:57:59.764Z,99726.37
2018-10-11T01:58:40.117Z,99726.47
2018-10-11T01:59:20.404Z,99730.00
2018-10-11T02:00:00.753Z,99733.98
2018-10-11T02:00:40.944Z,99732.95
2018-10-11T02:01:21.307Z,99734.08
2018-10-11T02:02:01.669Z,99731.30
2018-10-11T02:02:42.252Z,99732.22
2018-10-11T02:03:22.432Z,99728.41
2018-10-11T02:04:03.074Z,99726.36
2018-10-11T02:04:43.497Z,99725.81
2018-10-11T02:05:24.239Z,99725.43
2018-10-11T02:06:04.793Z,99717.71
2018-10-11T02:06:45.155Z,99728.50
2018-10-11T02:07:25.658Z,99709.91
2018-10-11T02:08:06.275Z,99727.02
2018-10-11T02:08:46.488Z,99721.99
2018-10-11T02:09:26.962Z,99725.72
2018-10-11T02:10:08.231Z,99724.59
2018-10-11T02:10:48.411Z,99727.11
2018-10-11T02:11:29.065Z,99724.59
2018-10-11T02:12:09.530Z,99724.97
2018-10-11T02:12:49.634Z,99720.86
2018-10-11T02:13:30.205Z,99726.56
2018-10-11T02:14:10.573Z,99727.77
2018-10-11T02:14:50.936Z,99729.71
2018-10-11T02:15:31.254Z,99731.19
2018-10-11T02:16:11.517Z,99719.56
2018-10-11T02:16:51.856Z,99728.32
2018-10-11T02:17:32.243Z,99728.49
2018-10-11T02:18:12.463Z,99729.16
2018-10-11T02:18:52.631Z,99728.70
2018-10-11T02:19:33.069Z,99723.75
2018-10-11T02:20:13.304Z,99720.77
2018-10-11T02:20:53.404Z,99726.70
2018-10-11T02:21:33.778Z,99715.91
2018-10-11T02:22:13.983Z,99718.52
2018-10-11T02:22:54.708Z,99728.67
2018-10-11T02:23:35.312Z,99728.58
2018-10-11T02:24:15.615Z,99731.09
2018-10-11T02:24:56.026Z,99723.20
2018-10-11T02:25:36.577Z,99729.71
2018-10-11T02:26:18.660Z,99721.91
2018-10-11T02:26:58.974Z,99714.27
2018-10-11T02:27:39.522Z,99720.69
2018-10-11T02:28:19.692Z,99719.59
2018-10-11T02:29:00.242Z,99719.09
2018-10-11T02:29:41.074Z,99723.20
2018-10-11T02:30:21.164Z,99719.09
2018-10-11T02:31:01.254Z,99720.52
2018-10-11T02:31:40.912Z,99724.88
2018-10-11T02:32:21.226Z,99723.72
2018-10-11T02:33:01.407Z,99724.55
2018-10-11T02:33:41.584Z,99714.41
2018-10-11T02:34:21.643Z,99721.75
2018-10-11T02:35:01.868Z,99715.53
2018-10-11T02:35:42.162Z,99718.30
2018-10-11T02:36:22.510Z,99713.94
2018-10-11T02:37:02.626Z,99715.53
2018-10-11T02:37:43.272Z,99714.98
2018-10-11T02:38:23.461Z,99712.55
2018-10-11T02:39:04.772Z,99719.35
2018-10-11T02:39:44.883Z,99717.58
2018-10-11T02:40:25.202Z,99713.68
2018-10-11T02:41:05.448Z,99719.98
2018-10-11T02:41:45.745Z,99715.45
2018-10-11T02:42:26.728Z,99714.64
2018-10-11T02:43:07.018Z,99711.30
2018-10-11T02:43:47.204Z,99716.23
2018-10-11T02:44:27.466Z,99716.50
2018-10-11T02:45:07.999Z,99712.94
2018-10-11T02:45:48.175Z,99712.09
2018-10-11T02:46:28.744Z,99711.09
2018-10-11T02:47:08.979Z,99717.77
2018-10-11T02:47:49.374Z,99709.12
2018-10-11T02:48:29.631Z,99711.63
2018-10-11T02:49:09.875Z,99718.34
2018-10-11T02:49:50.037Z,99718.69
2018-10-11T02:50:30.360Z,99718.26
2018-10-11T02:51:10.629Z,99719.13
2018-10-11T02:51:50.774Z,99718.92
2018-10-11T02:52:31.177Z,99715.77
2018-10-11T02:53:11.522Z,99722.80
2018-10-11T02:53:52.124Z,99720.23
2018-10-11T02:54:32.629Z,99719.30
2018-10-11T02:55:20.343Z,99717.30
2018-10-11T02:56:00.715Z,99718.42
2018-10-11T02:56:41.052Z,99722.95
2018-10-11T02:57:32.544Z,99720.18
2018-10-11T02:58:23.718Z,99712.77
2018-10-11T02:59:29.672Z,99716.99
2018-10-11T03:00:10.357Z,99716.88
2018-10-11T03:00:50.805Z,99718.37
2018-10-11T03:01:31.435Z,99719.22
2018-10-11T03:02:14.200Z,99711.46
2018-10-11T03:02:54.581Z,99721.58
2018-10-11T03:03:35.034Z,99713.02
2018-10-11T03:04:15.433Z,99708.95
2018-10-11T03:04:56.080Z,99719.94
2018-10-11T03:05:38.859Z,99717.83
2018-10-11T03:06:19.167Z,99717.80
2018-10-11T03:06:59.833Z,99711.55
2018-10-11T03:07:40.221Z,99716.74
2018-10-11T03:08:22.687Z,99683.83
2018-10-11T03:09:03.209Z,99717.84
2018-10-11T03:09:43.912Z,99720.44
2018-10-11T03:10:24.257Z,99720.05
2018-10-11T03:11:04.787Z,99720.17
2018-10-11T03:11:45.181Z,99719.80
2018-10-11T03:12:25.605Z,99718.30
2018-10-11T03:13:08.746Z,99722.11
2018-10-11T03:13:49.026Z,99718.96
2018-10-11T03:14:29.471Z,99721.66
2018-10-11T03:15:10.133Z,99722.56
2018-10-11T03:15:50.279Z,99711.68
2018-10-11T03:16:30.610Z,99720.02
2018-10-11T03:17:11.164Z,99717.52
2018-10-11T03:17:51.347Z,99722.19
2018-10-11T03:18:34.719Z,99718.75
2018-10-11T03:19:15.115Z,99717.90
2018-10-11T03:19:55.582Z,99713.27
2018-10-11T03:20:36.757Z,99714.00
2018-10-11T03:21:16.904Z,99711.13
2018-10-11T03:21:57.324Z,99712.77
2018-10-11T03:22:37.716Z,99715.10
2018-10-11T03:23:18.106Z,99712.86
2018-10-11T03:23:58.494Z,99718.72
2018-10-11T03:24:38.868Z,99719.17
2018-10-11T03:25:19.220Z,99713.87
2018-10-11T03:26:00.265Z,99717.23
2018-10-11T03:26:40.569Z,99723.45
2018-10-11T03:27:20.800Z,99723.53
2018-10-11T03:28:01.124Z,99728.81
2018-10-11T03:28:41.425Z,99733.77
2018-10-11T03:29:21.753Z,99733.38
2018-10-11T03:30:02.449Z,99731.87
2018-10-11T03:30:43.140Z,99730.22
2018-10-11T03:31:23.516Z,99724.89
2018-10-11T03:32:03.908Z,99731.06
2018-10-11T03:32:44.107Z,99733.86
2018-10-11T03:33:24.697Z,99728.81
2018-10-11T03:34:05.316Z,99737.56
2018-10-11T03:34:45.569Z,99727.78
2018-10-11T03:35:26.266Z,99729.55
2018-10-11T03:36:06.891Z,99726.56
2018-10-11T03:36:47.616Z,99723.21
2018-10-11T03:37:27.988Z,99732.69
2018-10-11T03:38:08.395Z,99732.13
2018-10-11T03:38:48.604Z,99729.61
2018-10-11T03:39:29.567Z,99728.05
2018-10-11T03:40:09.704Z,99733.84
2018-10-11T03:40:50.000Z,99734.84
2018-10-11T03:41:30.403Z,99736.56
2018-10-11T03:42:10.729Z,99736.66
2018-10-11T03:42:51.094Z,99734.75
2018-10-11T03:43:31.430Z,99706.84
2018-10-11T03:44:11.636Z,99734.83
2018-10-11T03:44:51.896Z,99743.77
2018-10-11T03:45:32.227Z,99735.24
2018-10-11T03:46:12.709Z,99743.44
2018-10-11T03:46:53.034Z,99738.22
2018-10-11T03:47:33.775Z,99731.92
2018-10-11T03:48:13.921Z,99733.84
2018-10-11T03:48:54.092Z,99736.34
2018-10-11T03:49:34.517Z,99733.45
2018-10-11T03:50:14.809Z,99731.77
2018-10-11T03:50:55.147Z,99738.42
2018-10-11T03:51:35.561Z,99734.77
2018-10-11T03:52:15.920Z,99730.38
2018-10-11T03:52:57.168Z,99726.84
2018-10-11T03:53:37.417Z,99736.14
2018-10-11T03:54:18.139Z,99736.80
2018-10-11T03:54:58.265Z,99741.80
2018-10-11T03:55:38.561Z,99732.70
2018-10-11T03:56:18.856Z,99729.95
2018-10-11T03:56:59.422Z,99727.34
2018-10-11T03:57:40.021Z,99725.10
2018-10-11T03:58:20.215Z,99720.89
2018-10-11T03:59:00.418Z,99733.80
2018-10-11T03:59:40.680Z,99730.69
2018-10-11T04:00:20.990Z,99733.22
2018-10-11T04:01:00.691Z,99729.55
2018-10-11T04:01:40.919Z,99730.57
2018-10-11T04:02:21.199Z,99731.45
2018-10-11T04:03:01.569Z,99733.66
2018-10-11T04:03:42.358Z,99737.42
2018-10-11T04:04:22.633Z,99741.06
2018-10-11T04:05:03.289Z,99735.56
2018-10-11T04:05:44.408Z,99746.42
2018-10-11T04:06:25.249Z,99737.46
2018-10-11T04:07:05.069Z,99744.53
2018-10-11T04:07:45.530Z,99753.05
2018-10-11T04:08:25.933Z,99745.83
2018-10-11T04:09:07.086Z,99750.19
2018-10-11T04:09:46.810Z,99739.00
2018-10-11T04:10:27.217Z,99748.75
2018-10-11T04:11:07.913Z,99732.17
2018-10-11T04:11:48.248Z,99743.39
2018-10-11T04:12:28.666Z,99746.53
2018-10-11T04:13:08.892Z,99747.77
2018-10-11T04:13:49.066Z,99748.05
2018-10-11T04:14:30.047Z,99740.03
2018-10-11T04:15:10.278Z,99748.50
2018-10-11T04:15:50.373Z,99741.33
2018-10-11T04:16:30.647Z,99745.91
2018-10-11T04:17:10.963Z,99734.30
2018-10-11T04:17:51.264Z,99745.14
2018-10-11T04:18:31.708Z,99744.39
2018-10-11T04:19:11.928Z,99741.98
2018-10-11T04:19:52.088Z,99746.91
2018-10-11T04:20:32.696Z,99744.36
2018-10-11T04:21:12.868Z,99737.73
2018-10-11T04:21:52.991Z,99724.92
2018-10-11T04:22:33.292Z,99746.61
2018-10-11T04:23:29.120Z,99735.75
2018-10-11T04:24:09.445Z,99744.28
2018-10-11T04:24:49.687Z,99744.94
2018-10-11T04:25:30.353Z,99743.56
2018-10-11T04:26:10.904Z,99744.38
2018-10-11T04:26:51.136Z,99734.42
2018-10-11T04:27:31.651Z,99742.34
2018-10-11T04:28:12.042Z,99745.06
2018-10-11T04:28:52.283Z,99735.53
2018-10-11T04:29:32.700Z,99747.85
2018-10-11T04:30:12.886Z,99737.27
2018-10-11T04:30:53.229Z,99751.89
2018-10-11T04:31:33.824Z,99745.14
2018-10-11T04:32:14.176Z,99745.66
2018-10-11T04:32:54.897Z,99751.45
2018-10-11T04:33:35.347Z,99756.00
2018-10-11T04:34:15.922Z,99746.45
2018-10-11T04:34:56.349Z,99752.64
2018-10-11T04:35:36.716Z,99750.02
2018-10-11T04:36:17.005Z,99754.64
2018-10-11T04:36:57.722Z,99762.35
2018-10-11T04:37:38.103Z,99745.43
2018-10-11T04:38:18.359Z,99763.05
2018-10-11T04:38:58.775Z,99745.48
2018-10-11T04:39:39.054Z,99750.02
2018-10-11T04:40:19.197Z,99742.64
2018-10-11T04:40:59.646Z,99753.12
2018-10-11T04:41:39.892Z,99752.91
2018-10-11T04:42:20.060Z,99741.80
2018-10-11T04:43:00.508Z,99751.81
2018-10-11T04:43:41.025Z,99738.60
2018-10-11T04:44:21.149Z,99749.22
2018-10-11T04:45:01.447Z,99749.41
2018-10-11T04:45:43.261Z,99743.45
2018-10-11T04:46:23.462Z,99756.28
2018-10-11T04:47:05.030Z,99749.47
2018-10-11T04:47:45.505Z,99750.66
2018-10-11T04:48:25.870Z,99747.69
2018-10-11T04:49:06.182Z,99749.33
2018-10-11T04:49:46.429Z,99747.77
2018-10-11T04:50:26.852Z,99749.10
2018-10-11T04:51:07.634Z,99743.91
2018-10-11T04:51:47.899Z,99753.30
2018-10-11T04:52:28.256Z,99752.34
2018-10-11T04:53:08.534Z,99752.13
2018-10-11T04:53:54.906Z,99750.75
2018-10-11T04:54:35.336Z,99754.09
2018-10-11T04:55:18.823Z,99742.19
2018-10-11T04:55:59.369Z,99757.77
2018-10-11T04:56:39.809Z,99758.23
2018-10-11T04:57:20.100Z,99756.43
2018-10-11T04:58:00.465Z,99753.07
2018-10-11T04:58:40.923Z,99758.41
2018-10-11T04:59:21.172Z,99757.11
2018-10-11T05:00:01.720Z,99758.70
2018-10-11T05:00:41.780Z,99751.53
2018-10-11T05:01:22.007Z,99758.00
2018-10-11T05:02:02.751Z,99757.58
2018-10-11T05:02:42.538Z,99750.81
2018-10-11T05:03:22.269Z,99758.31
2018-10-11T05:04:03.150Z,99758.12
2018-10-11T05:04:43.457Z,99750.41
2018-10-11T05:05:23.945Z,99758.64
2018-10-11T05:06:04.494Z,99751.61
2018-10-11T05:06:44.633Z,99752.94
2018-10-11T05:07:25.048Z,99746.75
2018-10-11T05:08:06.018Z,99739.54
2018-10-11T05:08:46.320Z,99747.58
2018-10-11T05:09:26.915Z,99746.72
2018-10-11T05:10:07.833Z,99743.84
2018-10-11T05:10:48.072Z,99742.70
2018-10-11T05:11:28.507Z,99741.27
2018-10-11T05:12:08.664Z,99747.30
2018-10-11T05:12:48.956Z,99744.63
2018-10-11T05:13:37.943Z,99739.32
2018-10-11T05:14:18.064Z,99737.34
2018-10-11T05:14:57.877Z,99736.56
2018-10-11T05:15:38.409Z,99740.33
2018-10-11T05:16:18.932Z,99740.68
2018-10-11T05:16:58.889Z,99743.52
2018-10-11T05:17:38.590Z,99745.50
2018-10-11T05:18:19.737Z,99742.56
2018-10-11T05:19:03.140Z,99731.34
2018-10-11T05:19:43.033Z,99739.55
2018-10-11T05:20:23.312Z,99744.22
2018-10-11T05:21:03.789Z,99743.41
2018-10-11T05:21:44.804Z,99752.98
2018-10-11T05:22:25.105Z,99755.43
2018-10-11T05:23:05.418Z,99757.50
2018-10-11T05:23:46.280Z,99755.55
2018-10-11T05:24:26.623Z,99762.97
2018-10-11T05:25:06.867Z,99762.70
2018-10-11T05:25:46.984Z,99763.09
2018-10-11T05:26:28.040Z,99765.88
2018-10-11T05:27:08.727Z,99760.45
2018-10-11T05:27:48.593Z,99771.98
2018-10-11T05:28:28.289Z,99763.01
2018-10-11T05:29:08.668Z,99766.98
2018-10-11T05:29:48.720Z,99767.47
2018-10-11T05:30:29.126Z,99772.52
2018-10-11T05:31:09.931Z,99771.10
2018-10-11T05:31:50.080Z,99779.70
2018-10-11T05:32:30.806Z,99776.56
2018-10-11T05:33:10.380Z,99778.02
2018-10-11T05:33:50.029Z,99776.68
2018-10-11T05:34:30.445Z,99778.13
2018-10-11T05:35:10.666Z,99780.20
2018-10-11T05:35:50.182Z,99784.12
2018-10-11T05:36:30.471Z,99785.92
2018-10-11T05:37:11.040Z,99779.62
2018-10-11T05:37:50.626Z,99783.52
2018-10-11T05:38:30.906Z,99780.87
2018-10-11T05:39:11.101Z,99780.50
2018-10-11T05:39:51.309Z,99771.64
2018-10-11T05:40:31.621Z,99779.81
2018-10-11T05:41:11.484Z,99784.05
2018-10-11T05:41:51.277Z,99781.91
2018-10-11T05:42:31.631Z,99782.95
2018-10-11T05:43:12.463Z,99774.58
2018-10-11T05:43:52.656Z,99778.13
2018-10-11T05:44:33.651Z,99779.23
2018-10-11T05:45:18.758Z,99779.58
2018-10-11T05:46:00.651Z,99784.77
2018-10-11T05:46:40.932Z,99780.61
2018-10-11T05:47:21.103Z,99786.19
2018-10-11T05:48:01.374Z,99781.07
2018-10-11T05:48:41.775Z,99781.38
2018-10-11T05:49:21.980Z,99785.58
2018-10-11T05:50:02.581Z,99783.37
2018-10-11T05:50:42.725Z,99792.84
2018-10-11T05:51:22.903Z,99783.33
2018-10-11T05:52:02.600Z,99792.22
2018-10-11T05:52:43.606Z,99792.03
2018-10-11T05:53:23.876Z,99788.98
2018-10-11T05:54:05.466Z,99775.53
2018-10-11T05:54:45.716Z,99798.53
2018-10-11T05:55:25.992Z,99795.78
2018-10-11T05:56:06.469Z,99801.09
2018-10-11T05:56:46.745Z,99772.09
2018-10-11T05:57:27.191Z,99800.21
2018-10-11T05:58:07.572Z,99793.26
2018-10-11T05:58:47.884Z,99794.82
2018-10-11T05:59:28.572Z,99789.48
2018-10-11T06:00:10.168Z,99792.33
2018-10-11T06:00:50.537Z,99792.48
2018-10-11T06:01:31.539Z,99796.30
2018-10-11T06:02:11.927Z,99792.98
2018-10-11T06:03:01.506Z,99800.35
2018-10-11T06:03:42.948Z,99793.17
2018-10-11T06:04:23.316Z,99797.45
2018-10-11T06:05:04.122Z,99789.81
2018-10-11T06:05:44.861Z,99791.49
2018-10-11T06:06:25.284Z,99791.56
2018-10-11T06:07:05.621Z,99787.02
2018-10-11T06:07:46.246Z,99778.31
2018-10-11T06:08:26.937Z,99786.22
2018-10-11T06:09:08.396Z,99782.86
2018-10-11T06:09:48.312Z,99783.24
2018-10-11T06:10:30.010Z,99787.52
2018-10-11T06:11:10.271Z,99780.11
2018-10-11T06:11:50.703Z,99782.63
2018-10-11T06:12:31.155Z,99781.41
2018-10-11T06:13:12.136Z,99782.78
2018-10-11T06:13:52.605Z,99778.21
2018-10-11T06:14:33.225Z,99793.30
2018-10-11T06:15:13.992Z,99799.59
2018-10-11T06:15:54.447Z,99798.91
2018-10-11T06:16:34.791Z,99799.26
2018-10-11T06:17:15.167Z,99796.70
2018-10-11T06:17:56.022Z,99794.56
2018-10-11T06:18:36.624Z,99800.21
2018-10-11T06:19:16.845Z,99803.23
2018-10-11T06:19:57.335Z,99805.83
2018-10-11T06:20:37.866Z,99809.08
2018-10-11T06:21:18.125Z,99806.70
2018-10-11T06:21:58.932Z,99811.75
2018-10-11T06:22:39.236Z,99805.30
2018-10-11T06:23:19.792Z,99808.84
2018-10-11T06:24:00.548Z,99806.48
2018-10-11T06:24:41.450Z,99804.91
2018-10-11T06:25:22.100Z,99805.95
2018-10-11T06:26:02.757Z,99808.55
2018-10-11T06:26:43.387Z,99802.77
2018-10-11T06:27:23.682Z,99810.64
2018-10-11T06:28:04.344Z,99786.00
2018-10-11T06:28:44.705Z,99815.03
2018-10-11T06:29:25.580Z,99809.80
2018-10-11T06:30:06.274Z,99818.43
2018-10-11T06:30:46.993Z,99818.63
2018-10-11T06:31:28.025Z,99821.30
2018-10-11T06:32:09.256Z,99822.10
2018-10-11T06:32:49.802Z,99823.67
2018-10-11T06:33:30.320Z,99826.80
2018-10-11T06:34:11.008Z,99825.95
2018-10-11T06:34:51.435Z,99827.49
2018-10-11T06:35:31.794Z,99829.55
2018-10-11T06:36:12.151Z,99832.56
2018-10-11T06:36:52.833Z,99830.05
2018-10-11T06:37:33.382Z,99829.94
2018-10-11T06:38:13.713Z,99839.03
2018-10-11T06:38:54.593Z,99831.69
2018-10-11T06:39:35.169Z,99831.61
2018-10-11T06:40:15.604Z,99832.95
2018-10-11T06:40:56.763Z,99834.16
2018-10-11T06:41:37.172Z,99834.17
2018-10-11T06:42:17.784Z,99823.09
2018-10-11T06:42:59.024Z,99837.67
2018-10-11T06:43:40.186Z,99835.77
2018-10-11T06:44:20.565Z,99843.87
2018-10-11T06:45:01.100Z,99840.97
2018-10-11T06:45:42.622Z,99841.43
2018-10-11T06:46:22.935Z,99840.45
2018-10-11T06:47:03.915Z,99843.63
2018-10-11T06:47:45.691Z,99852.08
2018-10-11T06:48:26.776Z,99862.05
2018-10-11T06:49:07.335Z,99854.11
2018-10-11T06:49:47.707Z,99875.09
2018-10-11T06:50:28.614Z,99857.59
2018-10-11T06:51:09.432Z,99873.69
2018-10-11T06:51:49.956Z,99874.98
2018-10-11T06:52:30.343Z,99878.66
2018-10-11T06:53:10.928Z,99877.94
2018-10-11T06:53:51.844Z,99885.24
2018-10-11T06:54:32.636Z,99879.73
2018-10-11T06:55:12.853Z,99886.30
2018-10-11T06:55:53.224Z,99888.41
2018-10-11T06:56:33.855Z,99888.78
2018-10-11T06:57:14.180Z,99887.52
2018-10-11T06:57:54.892Z,99882.85
2018-10-11T06:58:35.299Z,99885.61
2018-10-11T06:59:15.495Z,99891.19
2018-10-11T06:59:55.671Z,99892.72
2018-10-11T07:00:35.422Z,99898.11
2018-10-11T07:01:15.500Z,99895.08
2018-10-11T07:01:55.907Z,99899.70
2018-10-11T07:02:36.429Z,99896.34
2018-10-11T07:03:16.563Z,99893.38
2018-10-11T07:03:56.987Z,99905.12
2018-10-11T07:04:37.256Z,99900.34
2018-10-11T07:05:17.489Z,99906.98
2018-10-11T07:05:57.853Z,99905.80
2018-10-11T07:06:38.214Z,99906.53
2018-10-11T07:07:18.539Z,99910.92
2018-10-11T07:07:59.423Z,99921.25
2018-10-11T07:08:39.668Z,99919.88
2018-10-11T07:09:19.976Z,99923.31
2018-10-11T07:10:00.560Z,99920.72
2018-10-11T07:10:40.652Z,99921.94
2018-10-11T07:11:20.185Z,99917.42
2018-10-11T07:12:00.480Z,99922.44
2018-10-11T07:12:40.625Z,99925.80
2018-10-11T07:13:20.786Z,99912.22
2018-10-11T07:14:00.999Z,99917.23
2018-10-11T07:14:41.309Z,99923.72
2018-10-11T07:15:21.491Z,99924.98
2018-10-11T07:16:02.212Z,99926.67
2018-10-11T07:16:41.825Z,99935.34
2018-10-11T07:17:22.032Z,99931.47
2018-10-11T07:18:02.951Z,99939.92
2018-10-11T07:18:43.242Z,99931.84
2018-10-11T07:19:23.686Z,99932.67
2018-10-11T07:20:04.079Z,99936.48
2018-10-11T07:20:44.549Z,99933.33
2018-10-11T07:21:24.859Z,99935.21
2018-10-11T07:22:05.704Z,99933.15
2018-10-11T07:22:46.121Z,99935.39
2018-10-11T07:23:26.280Z,99928.54
2018-10-11T07:24:06.656Z,99933.98
2018-10-11T07:24:46.938Z,99940.87
2018-10-11T07:25:27.457Z,99938.80
2018-10-11T07:26:08.018Z,99936.18
2018-10-11T07:26:48.248Z,99940.20
2018-10-11T07:27:28.771Z,99928.46
2018-10-11T07:28:09.446Z,99942.55
2018-10-11T07:28:49.735Z,99906.30
2018-10-11T07:29:30.110Z,99945.70
2018-10-11T07:30:09.781Z,99956.22
2018-10-11T07:30:50.241Z,99941.47
2018-10-11T07:31:30.589Z,99934.52
2018-10-11T07:32:10.720Z,99930.08
2018-10-11T07:32:50.459Z,99937.16
2018-10-11T07:33:30.707Z,99933.18
2018-10-11T07:34:10.768Z,99929.58
2018-10-11T07:34:51.313Z,99939.22
2018-10-11T07:35:32.063Z,99939.94
2018-10-11T07:36:12.395Z,99934.58
2018-10-11T07:36:52.736Z,99939.81
2018-10-11T07:37:33.213Z,99936.53
2018-10-11T07:38:13.319Z,99938.24
2018-10-11T07:38:53.468Z,99935.27
2018-10-11T07:39:33.781Z,99941.11
2018-10-11T07:40:14.015Z,99939.47
2018-10-11T07:40:54.379Z,99930.36
2018-10-11T07:41:34.900Z,99936.47
2018-10-11T07:42:14.550Z,99944.08
2018-10-11T07:42:54.956Z,99940.03
2018-10-11T07:43:35.427Z,99945.40
2018-10-11T07:44:15.722Z,99945.76
2018-10-11T07:44:56.484Z,99947.28
2018-10-11T07:45:37.058Z,99943.84
2018-10-11T07:46:17.344Z,99947.14
2018-10-11T07:46:57.895Z,99952.38
2018-10-11T07:47:38.381Z,99946.78
2018-10-11T07:48:18.635Z,99951.64
2018-10-11T07:48:59.255Z,99946.90
2018-10-11T07:49:39.744Z,99949.98
2018-10-11T07:50:20.234Z,99953.52
2018-10-11T07:51:00.879Z,99951.67
2018-10-11T07:51:41.065Z,99950.94
2018-10-11T07:52:21.255Z,99948.79
2018-10-11T07:53:01.901Z,99951.29
2018-10-11T07:53:42.470Z,99950.98
2018-10-11T07:54:27.052Z,99945.92
2018-10-11T07:55:07.511Z,99950.34
2018-10-11T07:55:47.771Z,99953.52
2018-10-11T07:56:28.370Z,99953.78
2018-10-11T07:57:08.023Z,99959.77
2018-10-11T07:57:48.356Z,99957.77